ΕΜΥ, Εθνική Μετεωρολογική Υπηρεσία - Δελτία Καιρού, Προγνώσεις

ΑΕΡΟΝΑΥΤΙΛΙΑ

GREEK AIRPORTS CODES

LGKF 200450Z 13014KT 9999 FEW016 SCT020 BKN070 16/16 Q1015 RERA=

EUROPEAN AIRPORTS CODES

EBBR 200450Z 18005KT CAVOK M01/M02 Q1018 NOSIG=